sensor_id;sensor_type;location;lat;lon;timestamp;temperature;humidity
35381;DHT22;21486;51.916;8.378;2022-07-23T04:10:12;16.80;99.90
35381;DHT22;21486;51.916;8.378;2022-07-23T04:12:38;14.40;99.90
35381;DHT22;21486;51.916;8.378;2022-07-23T04:15:04;14.30;99.90
35381;DHT22;21486;51.916;8.378;2022-07-23T04:17:32;14.20;99.90
35381;DHT22;21486;51.916;8.378;2022-07-23T04:19:57;14.30;99.90
35381;DHT22;21486;51.916;8.378;2022-07-23T04:22:23;14.30;99.90
35381;DHT22;21486;51.916;8.378;2022-07-23T04:24:48;14.30;99.90
35381;DHT22;21486;51.916;8.378;2022-07-23T04:27:14;14.50;99.90
35381;DHT22;21486;51.916;8.378;2022-07-23T04:29:40;14.40;99.90
35381;DHT22;21486;51.916;8.378;2022-07-23T04:32:05;14.50;99.90
35381;DHT22;21486;51.916;8.378;2022-07-23T04:34:31;14.50;99.90
35381;DHT22;21486;51.916;8.378;2022-07-23T04:36:56;14.60;99.90
35381;DHT22;21486;51.916;8.378;2022-07-23T04:39:22;14.70;99.90
35381;DHT22;21486;51.916;8.378;2022-07-23T04:41:47;15.00;99.90
35381;DHT22;21486;51.916;8.378;2022-07-23T04:44:13;15.30;99.90
35381;DHT22;21486;51.916;8.378;2022-07-23T04:46:39;15.30;99.90
35381;DHT22;21486;51.916;8.378;2022-07-23T04:49:05;15.40;99.90
35381;DHT22;21486;51.916;8.378;2022-07-23T04:51:30;15.70;99.90
35381;DHT22;21486;51.916;8.378;2022-07-23T04:53:56;16.00;99.90
35381;DHT22;21486;51.916;8.378;2022-07-23T04:56:22;16.40;99.90
35381;DHT22;21486;51.916;8.378;2022-07-23T04:58:47;16.50;99.90
35381;DHT22;21486;51.916;8.378;2022-07-23T05:01:13;16.60;99.90
35381;DHT22;21486;51.916;8.378;2022-07-23T05:03:38;16.50;99.90
35381;DHT22;21486;51.916;8.378;2022-07-23T05:06:04;16.40;99.90
35381;DHT22;21486;51.916;8.378;2022-07-23T05:08:30;16.30;99.90
35381;DHT22;21486;51.916;8.378;2022-07-23T05:10:55;16.40;99.90
35381;DHT22;21486;51.916;8.378;2022-07-23T05:13:21;16.30;99.90
35381;DHT22;21486;51.916;8.378;2022-07-23T05:15:47;16.30;99.90
35381;DHT22;21486;51.916;8.378;2022-07-23T05:18:12;16.40;99.90
35381;DHT22;21486;51.916;8.378;2022-07-23T05:20:38;16.60;99.90
35381;DHT22;21486;51.916;8.378;2022-07-23T05:23:04;16.90;99.90
35381;DHT22;21486;51.916;8.378;2022-07-23T05:32:47;17.50;99.90
35381;DHT22;21486;51.916;8.378;2022-07-23T05:35:13;19.80;99.90
35381;DHT22;21486;51.916;8.378;2022-07-23T05:37:38;20.20;99.90
35381;DHT22;21486;51.916;8.378;2022-07-23T05:40:06;20.30;99.90
35381;DHT22;21486;51.916;8.378;2022-07-23T05:42:36;21.00;99.90
35381;DHT22;21486;51.916;8.378;2022-07-23T05:45:02;21.30;99.90
35381;DHT22;21486;51.916;8.378;2022-07-23T05:47:28;21.30;99.90
35381;DHT22;21486;51.916;8.378;2022-07-23T05:49:54;21.30;99.90
35381;DHT22;21486;51.916;8.378;2022-07-23T05:52:19;21.70;99.90
35381;DHT22;21486;51.916;8.378;2022-07-23T05:54:45;22.70;99.90
35381;DHT22;21486;51.916;8.378;2022-07-23T05:57:10;23.40;99.90
35381;DHT22;21486;51.916;8.378;2022-07-23T05:59:36;23.30;99.90
35381;DHT22;21486;51.916;8.378;2022-07-23T06:02:01;23.10;99.90
35381;DHT22;21486;51.916;8.378;2022-07-23T06:04:27;23.00;99.90
35381;DHT22;21486;51.916;8.378;2022-07-23T06:06:52;23.10;99.90
35381;DHT22;21486;51.916;8.378;2022-07-23T06:09:18;23.20;99.90
35381;DHT22;21486;51.916;8.378;2022-07-23T06:11:43;23.90;99.90
35381;DHT22;21486;51.916;8.378;2022-07-23T06:14:09;24.10;99.90
35381;DHT22;21486;51.916;8.378;2022-07-23T06:16:35;24.40;99.90
35381;DHT22;21486;51.916;8.378;2022-07-23T06:19:00;24.90;99.90
35381;DHT22;21486;51.916;8.378;2022-07-23T06:21:26;25.20;99.90
35381;DHT22;21486;51.916;8.378;2022-07-23T06:23:51;25.50;99.90
35381;DHT22;21486;51.916;8.378;2022-07-23T06:26:17;25.50;99.90
35381;DHT22;21486;51.916;8.378;2022-07-23T06:28:42;25.60;99.90
35381;DHT22;21486;51.916;8.378;2022-07-23T06:31:08;25.70;99.90
35381;DHT22;21486;51.916;8.378;2022-07-23T06:33:34;25.20;99.90
35381;DHT22;21486;51.916;8.378;2022-07-23T06:35:59;24.50;99.90
35381;DHT22;21486;51.916;8.378;2022-07-23T06:38:25;24.10;99.90
35381;DHT22;21486;51.916;8.378;2022-07-23T06:40:51;24.80;99.90
35381;DHT22;21486;51.916;8.378;2022-07-23T06:43:17;25.30;99.90
35381;DHT22;21486;51.916;8.378;2022-07-23T06:45:43;25.40;99.90
35381;DHT22;21486;51.916;8.378;2022-07-23T06:48:08;25.90;99.90
35381;DHT22;21486;51.916;8.378;2022-07-23T08:10:54;26.10;99.90
35381;DHT22;21486;51.916;8.378;2022-07-23T08:13:19;22.30;99.90
35381;DHT22;21486;51.916;8.378;2022-07-23T08:15:45;21.60;99.90
35381;DHT22;21486;51.916;8.378;2022-07-23T08:18:10;22.20;99.90
35381;DHT22;21486;51.916;8.378;2022-07-23T08:20:36;23.40;99.90
35381;DHT22;21486;51.916;8.378;2022-07-23T08:23:07;24.60;99.20
35381;DHT22;21486;51.916;8.378;2022-07-23T08:25:37;25.60;97.40
35381;DHT22;21486;51.916;8.378;2022-07-23T08:28:05;25.30;97.70
35381;DHT22;21486;51.916;8.378;2022-07-23T08:30:32;25.10;97.30
35381;DHT22;21486;51.916;8.378;2022-07-23T08:32:59;24.70;97.50
35381;DHT22;21486;51.916;8.378;2022-07-23T08:35:31;25.60;97.60
35381;DHT22;21486;51.916;8.378;2022-07-23T08:37:58;26.50;95.70
35381;DHT22;21486;51.916;8.378;2022-07-23T08:40:30;27.50;92.50
35381;DHT22;21486;51.916;8.378;2022-07-23T08:42:57;27.70;92.40
35381;DHT22;21486;51.916;8.378;2022-07-23T08:45:23;26.90;92.80
35381;DHT22;21486;51.916;8.378;2022-07-23T08:47:51;26.60;92.00
35381;DHT22;21486;51.916;8.378;2022-07-23T08:50:16;25.60;94.20
35381;DHT22;21486;51.916;8.378;2022-07-23T08:52:42;25.50;95.30
35381;DHT22;21486;51.916;8.378;2022-07-23T08:55:08;26.10;93.30
35381;DHT22;21486;51.916;8.378;2022-07-23T08:57:34;27.00;92.50
35381;DHT22;21486;51.916;8.378;2022-07-23T08:59:59;27.50;90.50
35381;DHT22;21486;51.916;8.378;2022-07-23T09:02:25;28.30;89.30
35381;DHT22;21486;51.916;8.378;2022-07-23T09:04:51;29.30;86.40
35381;DHT22;21486;51.916;8.378;2022-07-23T09:07:16;29.00;84.30
35381;DHT22;21486;51.916;8.378;2022-07-23T09:09:42;28.50;81.50
35381;DHT22;21486;51.916;8.378;2022-07-23T09:12:08;27.70;87.20
35381;DHT22;21486;51.916;8.378;2022-07-23T09:14:41;26.80;88.00
35381;DHT22;21486;51.916;8.378;2022-07-23T09:19:35;27.10;86.80
35381;DHT22;21486;51.916;8.378;2022-07-23T09:22:19;26.70;89.00
35381;DHT22;21486;51.916;8.378;2022-07-23T09:25:05;27.40;85.00
35381;DHT22;21486;51.916;8.378;2022-07-23T09:27:55;28.20;84.70
35381;DHT22;21486;51.916;8.378;2022-07-23T09:30:23;28.60;81.30
35381;DHT22;21486;51.916;8.378;2022-07-23T09:33:09;28.20;82.30
35381;DHT22;21486;51.916;8.378;2022-07-23T09:35:45;27.10;85.00
35381;DHT22;21486;51.916;8.378;2022-07-23T09:38:11;26.50;87.70
35381;DHT22;21486;51.916;8.378;2022-07-23T09:40:37;25.60;90.80
35381;DHT22;21486;51.916;8.378;2022-07-23T09:43:02;25.10;90.90
35381;DHT22;21486;51.916;8.378;2022-07-23T09:45:28;24.50;92.80
35381;DHT22;21486;51.916;8.378;2022-07-23T09:48:09;24.60;94.10
35381;DHT22;21486;51.916;8.378;2022-07-23T09:50:35;25.80;91.40
35381;DHT22;21486;51.916;8.378;2022-07-23T09:53:00;27.50;89.60
35381;DHT22;21486;51.916;8.378;2022-07-23T09:55:32;28.10;86.90
35381;DHT22;21486;51.916;8.378;2022-07-23T09:58:06;28.60;82.40
35381;DHT22;21486;51.916;8.378;2022-07-23T10:00:38;28.50;82.00
35381;DHT22;21486;51.916;8.378;2022-07-23T10:03:06;28.30;81.00
35381;DHT22;21486;51.916;8.378;2022-07-23T10:05:33;26.80;86.00
35381;DHT22;21486;51.916;8.378;2022-07-23T10:08:01;26.00;88.70
35381;DHT22;21486;51.916;8.378;2022-07-23T10:10:27;25.90;91.00
35381;DHT22;21486;51.916;8.378;2022-07-23T10:12:55;27.40;88.80
35381;DHT22;21486;51.916;8.378;2022-07-23T10:15:53;29.00;82.20
35381;DHT22;21486;51.916;8.378;2022-07-23T10:18:19;29.60;79.70
35381;DHT22;21486;51.916;8.378;2022-07-23T10:20:45;31.20;75.60
35381;DHT22;21486;51.916;8.378;2022-07-23T13:03:38;31.90;75.10
35381;DHT22;21486;51.916;8.378;2022-07-23T13:06:04;26.50;77.70
35381;DHT22;21486;51.916;8.378;2022-07-23T13:08:31;26.40;76.50
35381;DHT22;21486;51.916;8.378;2022-07-23T13:10:57;26.40;75.50
35381;DHT22;21486;51.916;8.378;2022-07-23T13:13:25;26.30;76.20
35381;DHT22;21486;51.916;8.378;2022-07-23T13:15:51;26.40;76.90
35381;DHT22;21486;51.916;8.378;2022-07-23T13:18:17;26.20;78.20
35381;DHT22;21486;51.916;8.378;2022-07-23T13:20:44;26.20;75.90
35381;DHT22;21486;51.916;8.378;2022-07-23T13:23:09;25.80;77.50
35381;DHT22;21486;51.916;8.378;2022-07-23T13:25:35;25.90;77.80
35381;DHT22;21486;51.916;8.378;2022-07-23T13:28:01;26.00;76.80
35381;DHT22;21486;51.916;8.378;2022-07-23T13:30:26;26.00;78.80
35381;DHT22;21486;51.916;8.378;2022-07-23T13:32:52;25.90;77.60
35381;DHT22;21486;51.916;8.378;2022-07-23T13:35:18;25.80;77.40
35381;DHT22;21486;51.916;8.378;2022-07-23T13:37:44;25.90;77.90
35381;DHT22;21486;51.916;8.378;2022-07-23T13:40:14;25.70;76.10
35381;DHT22;21486;51.916;8.378;2022-07-23T13:42:40;25.40;79.20
35381;DHT22;21486;51.916;8.378;2022-07-23T13:45:06;25.40;82.30
35381;DHT22;21486;51.916;8.378;2022-07-23T13:47:32;25.50;83.00
35381;DHT22;21486;51.916;8.378;2022-07-23T13:49:58;25.50;80.20
35381;DHT22;21486;51.916;8.378;2022-07-23T13:52:23;25.50;79.40
35381;DHT22;21486;51.916;8.378;2022-07-23T13:54:50;25.50;82.20
35381;DHT22;21486;51.916;8.378;2022-07-23T13:57:16;25.60;79.70
35381;DHT22;21486;51.916;8.378;2022-07-23T13:59:42;25.50;80.00
35381;DHT22;21486;51.916;8.378;2022-07-23T14:02:07;25.40;81.40
35381;DHT22;21486;51.916;8.378;2022-07-23T14:04:33;25.10;81.10
35381;DHT22;21486;51.916;8.378;2022-07-23T14:06:59;25.20;81.10
35381;DHT22;21486;51.916;8.378;2022-07-23T14:09:25;25.20;81.70
35381;DHT22;21486;51.916;8.378;2022-07-23T14:11:52;25.20;81.90
35381;DHT22;21486;51.916;8.378;2022-07-23T14:14:17;25.30;80.80
35381;DHT22;21486;51.916;8.378;2022-07-23T14:16:43;25.10;82.70
35381;DHT22;21486;51.916;8.378;2022-07-23T14:19:09;24.90;83.40
35381;DHT22;21486;51.916;8.378;2022-07-23T14:21:35;25.00;81.00
35381;DHT22;21486;51.916;8.378;2022-07-23T14:24:01;25.20;83.40
35381;DHT22;21486;51.916;8.378;2022-07-23T14:26:26;25.30;80.70
35381;DHT22;21486;51.916;8.378;2022-07-23T14:28:52;25.60;82.00
35381;DHT22;21486;51.916;8.378;2022-07-23T14:31:18;25.50;79.70
35381;DHT22;21486;51.916;8.378;2022-07-23T14:33:43;25.50;78.20
35381;DHT22;21486;51.916;8.378;2022-07-23T14:36:09;25.40;78.40
35381;DHT22;21486;51.916;8.378;2022-07-23T14:38:35;25.50;78.20
35381;DHT22;21486;51.916;8.378;2022-07-23T14:41:00;25.40;78.30
35381;DHT22;21486;51.916;8.378;2022-07-23T14:43:26;25.40;81.10
35381;DHT22;21486;51.916;8.378;2022-07-23T14:45:52;25.40;78.90
35381;DHT22;21486;51.916;8.378;2022-07-23T14:48:17;25.30;79.50
35381;DHT22;21486;51.916;8.378;2022-07-23T14:50:43;25.30;78.20
35381;DHT22;21486;51.916;8.378;2022-07-23T14:53:09;25.40;79.00
35381;DHT22;21486;51.916;8.378;2022-07-23T14:55:34;25.30;78.50
35381;DHT22;21486;51.916;8.378;2022-07-23T14:58:00;25.30;83.90
35381;DHT22;21486;51.916;8.378;2022-07-23T15:00:26;25.10;81.10
35381;DHT22;21486;51.916;8.378;2022-07-23T15:02:52;25.20;82.60
35381;DHT22;21486;51.916;8.378;2022-07-23T15:05:18;25.20;82.80
35381;DHT22;21486;51.916;8.378;2022-07-23T15:07:43;25.00;83.80
35381;DHT22;21486;51.916;8.378;2022-07-23T15:10:09;24.70;82.80
35381;DHT22;21486;51.916;8.378;2022-07-23T15:12:35;24.80;80.10
35381;DHT22;21486;51.916;8.378;2022-07-23T15:15:00;24.90;81.30
35381;DHT22;21486;51.916;8.378;2022-07-23T15:17:26;24.90;80.30
35381;DHT22;21486;51.916;8.378;2022-07-23T15:19:55;25.00;81.40
35381;DHT22;21486;51.916;8.378;2022-07-23T15:22:20;25.10;81.20
35381;DHT22;21486;51.916;8.378;2022-07-23T15:24:46;25.20;79.70
35381;DHT22;21486;51.916;8.378;2022-07-23T15:27:11;25.10;79.30
35381;DHT22;21486;51.916;8.378;2022-07-23T15:29:37;24.90;82.00
35381;DHT22;21486;51.916;8.378;2022-07-23T15:32:03;25.00;81.50
35381;DHT22;21486;51.916;8.378;2022-07-23T15:34:28;25.10;82.70
35381;DHT22;21486;51.916;8.378;2022-07-23T15:36:54;25.20;82.50
35381;DHT22;21486;51.916;8.378;2022-07-23T15:39:20;25.20;81.10
35381;DHT22;21486;51.916;8.378;2022-07-23T15:41:45;25.00;81.50
35381;DHT22;21486;51.916;8.378;2022-07-23T15:44:11;25.10;81.50
35381;DHT22;21486;51.916;8.378;2022-07-23T15:46:36;25.10;80.70
35381;DHT22;21486;51.916;8.378;2022-07-23T15:49:02;25.10;80.10
35381;DHT22;21486;51.916;8.378;2022-07-23T15:51:28;25.10;79.90
35381;DHT22;21486;51.916;8.378;2022-07-23T15:53:54;24.90;79.60
35381;DHT22;21486;51.916;8.378;2022-07-23T15:56:20;24.70;81.20
35381;DHT22;21486;51.916;8.378;2022-07-23T15:58:46;24.70;80.00
35381;DHT22;21486;51.916;8.378;2022-07-23T16:01:12;24.70;82.20
35381;DHT22;21486;51.916;8.378;2022-07-23T16:03:38;24.70;81.60
35381;DHT22;21486;51.916;8.378;2022-07-23T16:06:04;24.70;80.30
35381;DHT22;21486;51.916;8.378;2022-07-23T16:08:30;24.60;80.30
35381;DHT22;21486;51.916;8.378;2022-07-23T16:10:55;24.60;82.70
35381;DHT22;21486;51.916;8.378;2022-07-23T16:13:26;24.40;85.60
35381;DHT22;21486;51.916;8.378;2022-07-23T16:15:52;24.50;82.80
35381;DHT22;21486;51.916;8.378;2022-07-23T16:18:20;24.60;81.60
35381;DHT22;21486;51.916;8.378;2022-07-23T16:20:48;24.50;83.00
35381;DHT22;21486;51.916;8.378;2022-07-23T16:23:13;24.50;84.10
35381;DHT22;21486;51.916;8.378;2022-07-23T16:25:39;24.40;81.70
35381;DHT22;21486;51.916;8.378;2022-07-23T16:28:06;24.40;81.80
35381;DHT22;21486;51.916;8.378;2022-07-23T16:30:32;24.30;83.40
35381;DHT22;21486;51.916;8.378;2022-07-23T16:32:59;24.10;83.00
35381;DHT22;21486;51.916;8.378;2022-07-23T16:35:25;24.10;83.50
35381;DHT22;21486;51.916;8.378;2022-07-23T16:37:52;24.10;84.40
35381;DHT22;21486;51.916;8.378;2022-07-23T16:40:18;24.00;88.50
35381;DHT22;21486;51.916;8.378;2022-07-23T16:42:43;24.20;86.70
35381;DHT22;21486;51.916;8.378;2022-07-23T16:45:09;24.20;84.50
35381;DHT22;21486;51.916;8.378;2022-07-23T16:47:36;24.20;83.80
35381;DHT22;21486;51.916;8.378;2022-07-23T16:50:06;24.30;84.00
35381;DHT22;21486;51.916;8.378;2022-07-23T16:52:31;24.20;84.70
35381;DHT22;21486;51.916;8.378;2022-07-23T16:54:57;24.20;84.30
35381;DHT22;21486;51.916;8.378;2022-07-23T16:57:23;24.30;83.90
35381;DHT22;21486;51.916;8.378;2022-07-23T16:59:49;24.30;83.70
35381;DHT22;21486;51.916;8.378;2022-07-23T17:02:15;24.10;83.80
35381;DHT22;21486;51.916;8.378;2022-07-23T17:04:41;24.10;85.30
35381;DHT22;21486;51.916;8.378;2022-07-23T17:07:07;24.00;84.90
35381;DHT22;21486;51.916;8.378;2022-07-23T17:09:34;24.00;84.30
35381;DHT22;21486;51.916;8.378;2022-07-23T17:12:00;23.80;84.50
35381;DHT22;21486;51.916;8.378;2022-07-23T17:14:26;23.80;87.20
35381;DHT22;21486;51.916;8.378;2022-07-23T17:16:52;23.70;86.60
35381;DHT22;21486;51.916;8.378;2022-07-23T17:19:17;23.80;85.40
35381;DHT22;21486;51.916;8.378;2022-07-23T17:21:43;23.70;88.60
35381;DHT22;21486;51.916;8.378;2022-07-23T17:24:09;23.70;85.60
35381;DHT22;21486;51.916;8.378;2022-07-23T17:26:34;23.80;85.50
35381;DHT22;21486;51.916;8.378;2022-07-23T17:29:01;23.60;86.00
35381;DHT22;21486;51.916;8.378;2022-07-23T17:33:52;23.50;85.30
35381;DHT22;21486;51.916;8.378;2022-07-23T17:36:18;23.50;87.50
35381;DHT22;21486;51.916;8.378;2022-07-23T17:38:43;23.40;89.50
35381;DHT22;21486;51.916;8.378;2022-07-23T17:41:09;23.30;89.70
35381;DHT22;21486;51.916;8.378;2022-07-23T17:43:35;23.40;89.20
35381;DHT22;21486;51.916;8.378;2022-07-23T17:46:01;23.30;90.50
35381;DHT22;21486;51.916;8.378;2022-07-23T17:48:26;23.30;90.00
35381;DHT22;21486;51.916;8.378;2022-07-23T17:50:52;23.20;89.30
35381;DHT22;21486;51.916;8.378;2022-07-23T17:53:18;23.10;88.80
35381;DHT22;21486;51.916;8.378;2022-07-23T17:55:44;23.20;89.80
35381;DHT22;21486;51.916;8.378;2022-07-23T17:58:09;23.10;90.30
35381;DHT22;21486;51.916;8.378;2022-07-23T18:00:36;23.00;90.40
35381;DHT22;21486;51.916;8.378;2022-07-23T18:03:02;23.00;90.10
35381;DHT22;21486;51.916;8.378;2022-07-23T18:05:28;23.00;90.60
35381;DHT22;21486;51.916;8.378;2022-07-23T18:07:54;23.00;90.30
35381;DHT22;21486;51.916;8.378;2022-07-23T18:10:20;23.00;90.80
35381;DHT22;21486;51.916;8.378;2022-07-23T18:12:47;22.90;90.90
35381;DHT22;21486;51.916;8.378;2022-07-23T18:15:13;22.90;92.10
35381;DHT22;21486;51.916;8.378;2022-07-23T18:17:39;22.80;92.00
35381;DHT22;21486;51.916;8.378;2022-07-23T18:20:06;22.70;92.20
35381;DHT22;21486;51.916;8.378;2022-07-23T18:22:31;22.60;91.70
35381;DHT22;21486;51.916;8.378;2022-07-23T18:24:57;22.60;91.50
35381;DHT22;21486;51.916;8.378;2022-07-23T18:27:23;22.60;92.00
35381;DHT22;21486;51.916;8.378;2022-07-23T18:29:49;22.50;92.80
35381;DHT22;21486;51.916;8.378;2022-07-23T18:32:15;22.40;93.00
35381;DHT22;21486;51.916;8.378;2022-07-23T18:34:40;22.40;93.60
35381;DHT22;21486;51.916;8.378;2022-07-23T18:37:08;22.30;93.50
35381;DHT22;21486;51.916;8.378;2022-07-23T18:39:33;22.30;93.30
35381;DHT22;21486;51.916;8.378;2022-07-23T18:59:04;22.30;94.00
35381;DHT22;21486;51.916;8.378;2022-07-23T19:01:29;21.70;97.10
35381;DHT22;21486;51.916;8.378;2022-07-23T19:03:56;21.60;97.80
35381;DHT22;21486;51.916;8.378;2022-07-23T19:06:22;21.40;98.90
35381;DHT22;21486;51.916;8.378;2022-07-23T19:08:48;21.30;99.30
35381;DHT22;21486;51.916;8.378;2022-07-23T19:11:14;21.20;99.90
35381;DHT22;21486;51.916;8.378;2022-07-23T19:13:39;21.00;99.90
35381;DHT22;21486;51.916;8.378;2022-07-23T19:16:05;20.80;99.90
35381;DHT22;21486;51.916;8.378;2022-07-23T20:41:24;20.80;99.90
35381;DHT22;21486;51.916;8.378;2022-07-23T21:17:55;18.90;99.90
35381;DHT22;21486;51.916;8.378;2022-07-23T21:20:21;18.20;99.90
35381;DHT22;21486;51.916;8.378;2022-07-23T21:22:47;18.00;99.90
35381;DHT22;21486;51.916;8.378;2022-07-23T21:25:14;18.20;99.90
35381;DHT22;21486;51.916;8.378;2022-07-23T21:27:41;18.20;99.90
35381;DHT22;21486;51.916;8.378;2022-07-23T21:30:07;18.10;99.90
35381;DHT22;21486;51.916;8.378;2022-07-23T21:32:35;18.10;99.90
35381;DHT22;21486;51.916;8.378;2022-07-23T21:35:05;18.00;99.90
35381;DHT22;21486;51.916;8.378;2022-07-23T21:37:31;18.00;99.90
35381;DHT22;21486;51.916;8.378;2022-07-23T21:39:57;17.90;99.90
35381;DHT22;21486;51.916;8.378;2022-07-23T21:42:22;17.90;99.90
35381;DHT22;21486;51.916;8.378;2022-07-23T21:44:48;18.00;99.90
35381;DHT22;21486;51.916;8.378;2022-07-23T21:47:14;18.00;99.90
35381;DHT22;21486;51.916;8.378;2022-07-23T21:49:39;18.00;99.90
35381;DHT22;21486;51.916;8.378;2022-07-23T21:52:05;18.00;99.90
35381;DHT22;21486;51.916;8.378;2022-07-23T21:54:30;17.90;99.90
35381;DHT22;21486;51.916;8.378;2022-07-23T21:56:57;17.90;99.90
35381;DHT22;21486;51.916;8.378;2022-07-23T21:59:23;18.00;99.90
35381;DHT22;21486;51.916;8.378;2022-07-23T22:01:49;17.90;99.90
35381;DHT22;21486;51.916;8.378;2022-07-23T22:04:14;17.90;99.90
35381;DHT22;21486;51.916;8.378;2022-07-23T22:06:40;17.80;99.90
35381;DHT22;21486;51.916;8.378;2022-07-23T22:09:06;17.80;99.90
